Turkum — YMA2451 — position and weather

sailwx.info

Track history (hours):
 
Tides and Currents Weather Stations Pressure Air Temp Water Temp Dewpoint Dewpoint Depression Visibility Wind Speed Wind Dir Waves Ship Positions

Turkum

Last reported at 2018-Mar-09 21:35 UTC. Time now 2018-Jun-20 21:10 UTC.
Position N 36°18' E 030°32'.
Warning: this ship's position is months out of date.

Length 14 m.

Type: Pleasure craft. MMSI: 271043685.

Date/timePositionNaut miles runAvg speedWind from/ knotsBaromVisibWave heightAir tempDewpointWater temp
2018-Mar-09 21:35N 36°18' E 030°32'1 5.8
2018-Mar-09 21:28N 36°19' E 030°32'4 6.3
2018-Mar-09 20:52N 36°22' E 030°34'7 6.4
2018-Mar-09 19:45N 36°29' E 030°37'2 6.3
2018-Mar-09 19:24N 36°31' E 030°37'2 6.1
2018-Mar-09 19:00N 36°34' E 030°37'2 3.0
2018-Mar-09 18:30N 36°35' E 030°37'3 6.2
2018-Mar-09 18:00N 36°38' E 030°38'3 6.1
2018-Mar-09 17:29N 36°41' E 030°38'3 5.9
2018-Mar-09 17:00N 36°44' E 030°38'3 5.9
2018-Mar-09 16:30N 36°47' E 030°38'3 5.3
2018-Mar-09 16:00N 36°50' E 030°37'1 1.4
2018-Mar-09 15:29N 36°50' E 030°36'0 0.0
2018-Mar-09 14:59N 36°50' E 030°36'0 0.0
2018-Mar-09 14:29N 36°50' E 030°36'0 0.0
2018-Mar-09 13:59N 36°50' E 030°36'0 0.0
2018-Mar-09 13:29N 36°50' E 030°36'0 0.0
2018-Mar-09 12:59N 36°50' E 030°36'0 0.0
2018-Mar-09 12:29N 36°50' E 030°36'0 0.0
2018-Mar-09 11:59N 36°50' E 030°36'0 0.0
2018-Mar-09 11:29N 36°50' E 030°36'0 0.0
2018-Mar-09 10:59N 36°50' E 030°36'0 0.0
2018-Mar-09 10:29N 36°50' E 030°36'0 0.0
2018-Mar-09 09:50N 36°50' E 030°36'0 0.0
2018-Mar-09 09:29N 36°50' E 030°36'0 0.0
2018-Mar-09 08:59N 36°50' E 030°36'0 0.0
2018-Mar-09 08:29N 36°50' E 030°36'0 0.0
2018-Mar-09 07:59N 36°50' E 030°36'0 0.0
2018-Mar-09 07:29N 36°50' E 030°36'0 0.0
2018-Mar-09 06:59N 36°50' E 030°36'0 0.0
2018-Mar-09 06:29N 36°50' E 030°36'0 0.0
2018-Mar-09 05:59N 36°50' E 030°36'0 0.0
2018-Mar-09 05:29N 36°50' E 030°36'0 0.0
2018-Mar-09 04:59N 36°50' E 030°36'0 0.0
2018-Mar-09 04:29N 36°50' E 030°36'0 0.0
2018-Mar-09 03:56N 36°50' E 030°36'0 0.0
2018-Mar-09 03:30N 36°50' E 030°36'0 0.0
2018-Mar-09 02:59N 36°50' E 030°36'0 0.0
2018-Mar-09 02:29N 36°50' E 030°36'0 0.0
2018-Mar-09 02:00N 36°50' E 030°36'0 0.0
2018-Mar-09 01:29N 36°50' E 030°36'0 0.0
2018-Mar-09 01:00N 36°50' E 030°36'0 0.0
2018-Mar-09 00:30N 36°50' E 030°36'0 0.0
2018-Mar-09 00:00N 36°50' E 030°36'0 0.0
2018-Mar-08 23:30N 36°50' E 030°36'0 0.0
2018-Mar-08 23:00N 36°50' E 030°36'0 0.0
2018-Mar-08 22:30N 36°50' E 030°36'0 0.0
2018-Mar-08 22:00N 36°50' E 030°36'0 0.0
2018-Mar-08 21:30N 36°50' E 030°36'0 0.0
2018-Mar-08 21:00N 36°50' E 030°36'0 0.0
2018-Mar-08 20:24N 36°50' E 030°36'0 0.0
2018-Mar-07 22:00N 36°50' E 030°36'0 0.0
2018-Mar-07 21:30N 36°50' E 030°36'0 0.0
2018-Mar-07 21:00N 36°50' E 030°36'0 0.0
2018-Mar-07 20:30N 36°50' E 030°36'0 0.0
2018-Mar-07 20:00N 36°50' E 030°36'0 0.0
2018-Mar-07 19:27N 36°50' E 030°36'0 0.0
2018-Mar-07 19:00N 36°50' E 030°36'0 0.0
2018-Mar-07 18:30N 36°50' E 030°36'0 0.0
2018-Mar-07 18:00N 36°50' E 030°36'0 0.0
2018-Mar-07 17:30N 36°50' E 030°36'0 0.0
2018-Mar-07 17:00N 36°50' E 030°36'0 0.0
2018-Mar-07 16:30N 36°50' E 030°36'0 0.0
2018-Mar-07 16:00N 36°50' E 030°36'0 0.0
2018-Mar-07 15:30N 36°50' E 030°36'0 0.0
2018-Mar-07 15:00N 36°50' E 030°36'0 0.0
2018-Mar-07 14:30N 36°50' E 030°36'0 0.0
2018-Mar-07 14:00N 36°50' E 030°36'0 0.0
2018-Mar-07 13:30N 36°50' E 030°36'0 0.0
2018-Mar-07 13:00N 36°50' E 030°36'0 0.0
2018-Mar-07 12:30N 36°50' E 030°36'0 0.0
2018-Mar-07 12:00N 36°50' E 030°36'0 0.0
2018-Mar-07 11:30N 36°50' E 030°36'0 0.0
2018-Mar-07 11:00N 36°50' E 030°36'0 0.0
2018-Mar-07 10:30N 36°50' E 030°36'0 0.0
2018-Mar-07 10:00N 36°50' E 030°36'0 0.0
2018-Mar-07 09:30N 36°50' E 030°36'0 0.0
2018-Mar-07 09:00N 36°50' E 030°36'0 0.0
2018-Mar-07 08:27N 36°50' E 030°36'0 0.0
2018-Mar-07 08:00N 36°50' E 030°36'0 0.0
2018-Mar-07 07:30N 36°50' E 030°36'0 0.0
2018-Mar-07 07:00N 36°50' E 030°36'0 0.0
2018-Mar-07 06:30N 36°50' E 030°36'0 0.0
2018-Mar-07 06:00N 36°50' E 030°36'0 0.0
2018-Mar-07 05:30N 36°50' E 030°36'0 0.0
2018-Mar-07 05:00N 36°50' E 030°36'0 0.0
2018-Mar-07 04:30N 36°50' E 030°36'0 0.0
2018-Mar-07 04:00N 36°50' E 030°36'0 0.0
2018-Mar-07 03:30N 36°50' E 030°36'0 0.0
2018-Mar-07 03:00N 36°50' E 030°36'0 0.0
2018-Mar-07 02:30N 36°50' E 030°36'0 0.0
2018-Mar-07 02:00N 36°50' E 030°36'0 0.0
2018-Mar-07 01:30N 36°50' E 030°36'0 0.0
2018-Mar-07 00:57N 36°50' E 030°36'0 0.0
2018-Mar-07 00:30N 36°50' E 030°36'0 0.0
2018-Mar-07 00:00N 36°50' E 030°36'0 0.0
2018-Mar-06 23:27N 36°50' E 030°36'0 0.0
2018-Mar-06 23:00N 36°50' E 030°36'0 0.0
2018-Mar-06 22:30N 36°50' E 030°36'0 0.0
2018-Mar-06 22:00N 36°50' E 030°36'0 0.0
2018-Mar-06 21:30N 36°50' E 030°36'0 0.0
2018-Mar-06 21:00N 36°50' E 030°36'0 0.0
2018-Mar-06 20:30N 36°50' E 030°36'0 0.0
2018-Mar-06 20:00N 36°50' E 030°36'0 0.0
2018-Mar-06 19:30N 36°50' E 030°36'0 0.0
2018-Mar-06 19:00N 36°50' E 030°36'0 0.0
2018-Mar-06 18:30N 36°50' E 030°36'0 0.0
2018-Mar-06 18:00N 36°50' E 030°36'0 0.0
2018-Mar-06 17:30N 36°50' E 030°36'0 0.0
2018-Mar-06 17:00N 36°50' E 030°36'0 0.0
2018-Mar-06 16:30N 36°50' E 030°36'0 0.0
2018-Mar-06 16:00N 36°50' E 030°36'0 0.0
2018-Mar-06 15:30N 36°50' E 030°36'0 0.0
2018-Mar-06 15:00N 36°50' E 030°36'0 0.0
2018-Mar-06 14:30N 36°50' E 030°36'0 0.0
2018-Mar-06 14:00N 36°50' E 030°36'0 0.0
2018-Mar-06 13:30N 36°50' E 030°36'0 0.0
2018-Mar-06 13:00N 36°50' E 030°36'0 0.0
2018-Mar-06 12:30N 36°50' E 030°36'0 0.0
2018-Mar-06 12:00N 36°50' E 030°36'0 0.0
2018-Mar-06 11:30N 36°50' E 030°36'0 0.0
2018-Mar-06 11:00N 36°50' E 030°36'0 0.0
2018-Mar-06 10:30N 36°50' E 030°36'0 0.0
2018-Mar-06 10:00N 36°50' E 030°36'0 0.0
2018-Mar-06 09:30N 36°50' E 030°36'0 0.0
2018-Mar-06 09:00N 36°50' E 030°36'0 0.0
2018-Mar-06 08:30N 36°50' E 030°36'0 0.0
2018-Mar-06 07:57N 36°50' E 030°36'0 0.0
2018-Mar-06 07:30N 36°50' E 030°36'0 0.0
2018-Mar-06 07:00N 36°50' E 030°36'0 0.0
2018-Mar-06 06:30N 36°50' E 030°36'0 0.0
2018-Mar-06 05:57N 36°50' E 030°36'0 0.0
2018-Mar-06 05:30N 36°50' E 030°36'0 0.0
2018-Mar-06 05:00N 36°50' E 030°36'0 0.0
2018-Mar-06 04:30N 36°50' E 030°36'0 0.0
2018-Mar-06 04:00N 36°50' E 030°36'0 0.0
2018-Mar-06 03:30N 36°50' E 030°36'0 0.0
2018-Mar-06 03:00N 36°50' E 030°36'0 0.0
2018-Mar-06 02:30N 36°50' E 030°36'0 0.0
2018-Mar-06 02:00N 36°50' E 030°36'0 0.0
2018-Mar-06 01:30N 36°50' E 030°36'0 0.0
2018-Mar-06 01:00N 36°50' E 030°36'0 0.0
2018-Mar-06 00:30N 36°50' E 030°36'0 0.0
2018-Mar-06 00:00N 36°50' E 030°36'0 0.0
2018-Mar-05 23:30N 36°50' E 030°36'0 0.0
2018-Mar-05 23:00N 36°50' E 030°36'0 0.0
2018-Mar-05 22:30N 36°50' E 030°36'0 0.0
2018-Mar-05 22:00N 36°50' E 030°36'0 0.0
2018-Mar-05 21:30N 36°50' E 030°36'0 0.0
2018-Mar-05 20:57N 36°50' E 030°36'0 0.0
2018-Mar-05 20:30N 36°50' E 030°36'0 0.0
2018-Mar-05 20:00N 36°50' E 030°36'0 0.0
2018-Mar-05 19:30N 36°50' E 030°36'0 0.0
2018-Mar-05 19:00N 36°50' E 030°36'0 0.0
2018-Mar-05 18:30N 36°50' E 030°36'0 0.0
2018-Mar-05 18:00N 36°50' E 030°36'0 0.0
2018-Mar-05 17:30N 36°50' E 030°36'0 0.0
2018-Mar-05 17:00N 36°50' E 030°36'0 0.0
2018-Mar-05 16:30N 36°50' E 030°36'0 0.0
2018-Mar-05 05:15N 36°50' E 030°36'0 0.0
2018-Mar-05 05:00N 36°50' E 030°36'0 0.0
2018-Mar-05 04:30N 36°50' E 030°36'0 0.0
2018-Mar-05 04:00N 36°50' E 030°36'0 0.0
2018-Mar-05 03:30N 36°50' E 030°36'0 0.0
2018-Mar-05 03:00N 36°50' E 030°36'0 0.0
2018-Mar-05 02:30N 36°50' E 030°36'0 0.0
2018-Mar-05 02:00N 36°50' E 030°36'0 0.0
2018-Mar-05 01:30N 36°50' E 030°36'0 0.0
2018-Mar-05 01:00N 36°50' E 030°36'0 0.0
2018-Mar-05 00:30N 36°50' E 030°36'0 0.0
2018-Mar-05 00:00N 36°50' E 030°36'0 0.0
2018-Mar-04 23:30N 36°50' E 030°36'0 0.0
2018-Mar-04 23:00N 36°50' E 030°36'0 0.0
2018-Mar-04 22:30N 36°50' E 030°36'0 0.0
2018-Mar-04 22:00N 36°50' E 030°36'0 0.0
2018-Mar-04 21:30N 36°50' E 030°36'0 0.0
2018-Mar-04 21:00N 36°50' E 030°36'0 0.0
2018-Mar-04 20:30N 36°50' E 030°36'0 0.0
2018-Mar-04 20:00N 36°50' E 030°36'0 0.0
2018-Mar-04 19:30N 36°50' E 030°36'0 0.0
2018-Mar-04 19:00N 36°50' E 030°36'0 0.0
2018-Mar-04 18:30N 36°50' E 030°36'0 0.0
2018-Mar-04 18:00N 36°50' E 030°36'0 0.0
2018-Mar-04 17:30N 36°50' E 030°36'0 0.0
2018-Mar-04 16:57N 36°50' E 030°36'0 0.0
2018-Mar-04 16:30N 36°50' E 030°36'0 0.0
2018-Mar-04 15:57N 36°50' E 030°36'0 0.0
2018-Mar-04 15:30N 36°50' E 030°36'0 0.0
2018-Mar-04 15:00N 36°50' E 030°36'0 0.0
2018-Mar-04 14:30N 36°50' E 030°36'0 0.0
2018-Mar-04 14:00N 36°50' E 030°36'0 0.0
2018-Mar-04 13:30N 36°50' E 030°36'0 0.0
2018-Mar-04 13:00N 36°50' E 030°36'0 0.0
2018-Mar-04 12:30N 36°50' E 030°36'0 0.0
2018-Mar-04 12:00N 36°50' E 030°36'0 0.0
2018-Mar-04 11:30N 36°50' E 030°36'0 0.0
2018-Mar-04 11:00N 36°50' E 030°36'0 0.0
2018-Mar-04 10:30N 36°50' E 030°36'0 0.0
2018-Mar-04 10:00N 36°50' E 030°36'0 0.0
2018-Mar-04 09:30N 36°50' E 030°36'0 0.0
2018-Mar-04 08:54N 36°50' E 030°36'0 0.0
2018-Mar-04 08:30N 36°50' E 030°36'0 0.0
2018-Mar-04 08:00N 36°50' E 030°36'0 0.0
2018-Mar-04 07:30N 36°50' E 030°36'0 0.0
2018-Mar-04 07:00N 36°50' E 030°36'0 0.0
2018-Mar-04 06:30N 36°50' E 030°36'0 0.0
2018-Mar-04 06:00N 36°50' E 030°36'0 0.0
2018-Mar-04 05:30N 36°50' E 030°36'0 0.0
2018-Mar-04 05:00N 36°50' E 030°36'0 0.0
2018-Mar-04 04:30N 36°50' E 030°36'0 0.0
2018-Mar-04 03:57N 36°50' E 030°36'0 0.0
2018-Mar-04 03:30N 36°50' E 030°36'0 0.0
2018-Mar-04 03:00N 36°50' E 030°36'0 0.0
2018-Mar-04 02:30N 36°50' E 030°36'0 0.0
2018-Mar-04 02:00N 36°50' E 030°36'0 0.0
2018-Mar-04 01:30N 36°50' E 030°36'0 0.0
2018-Mar-04 01:00N 36°50' E 030°36'0 0.0
2018-Mar-04 00:30N 36°50' E 030°36'0 0.0
2018-Mar-03 23:57N 36°50' E 030°36'0 0.0
2018-Mar-03 23:30N 36°50' E 030°36'0 0.0
2018-Mar-03 23:00N 36°50' E 030°36'0 0.0
2018-Mar-03 22:30N 36°50' E 030°36'0 0.0
2018-Mar-03 22:00N 36°50' E 030°36'0 0.0
2018-Mar-03 21:30N 36°50' E 030°36'0 0.0
2018-Mar-03 20:57N 36°50' E 030°36'0 0.0
2018-Mar-03 20:27N 36°50' E 030°36'0 0.0
2018-Mar-03 20:01N 36°50' E 030°36'0 0.0
2018-Mar-03 19:31N 36°50' E 030°36'0 0.0
2018-Mar-03 19:00N 36°50' E 030°36'0 0.0
2018-Mar-03 18:31N 36°50' E 030°36'0 0.0
2018-Mar-03 18:01N 36°50' E 030°36'0 0.0
2018-Mar-03 17:25N 36°50' E 030°36'0 0.0
2018-Mar-03 16:58N 36°50' E 030°36'0 0.0
2018-Mar-03 16:28N 36°50' E 030°36'0 0.0
2018-Mar-03 15:58N 36°50' E 030°36'0 0.0
2018-Mar-03 15:28N 36°50' E 030°36'0 0.0
2018-Mar-03 14:58N 36°50' E 030°36'0 0.0
2018-Mar-03 14:28N 36°50' E 030°36'0 0.0
2018-Mar-03 13:58N 36°50' E 030°36'0 0.0
2018-Mar-03 13:28N 36°50' E 030°36'0 0.0
2018-Mar-03 12:58N 36°50' E 030°36'0 0.0
2018-Mar-03 12:28N 36°50' E 030°36'0 0.0
2018-Mar-03 11:52N 36°50' E 030°36'0 0.0
2018-Mar-03 11:28N 36°50' E 030°36'0 0.0
2018-Mar-03 10:58N 36°50' E 030°36'0 0.0
2018-Mar-03 10:22N 36°50' E 030°36'0 0.0
2018-Mar-03 09:55N 36°50' E 030°36'0 0.0
2018-Mar-03 09:22N 36°50' E 030°36'0 0.0
2018-Mar-03 08:58N 36°50' E 030°36'0 0.0
2018-Mar-03 08:28N 36°50' E 030°36'0 0.0
2018-Mar-03 07:58N 36°50' E 030°36'0 0.0
2018-Mar-03 07:28N 36°50' E 030°36'0 0.0
2018-Mar-03 06:58N 36°50' E 030°36'0 0.0
2018-Mar-03 06:28N 36°50' E 030°36'0 0.0
2018-Mar-03 05:58N 36°50' E 030°36'0 0.0
2018-Mar-03 05:28N 36°50' E 030°36'0 0.0
2018-Mar-03 04:58N 36°50' E 030°36'0 0.0
2018-Mar-03 04:28N 36°50' E 030°36'0 0.0
2018-Mar-03 03:55N 36°50' E 030°36'0 0.0
2018-Mar-03 03:28N 36°50' E 030°36'0 0.0
2018-Mar-03 02:58N 36°50' E 030°36'0 0.0
2018-Mar-03 02:28N 36°50' E 030°36'0 0.0
2018-Mar-03 01:58N 36°50' E 030°36'0 0.0
2018-Mar-03 01:28N 36°50' E 030°36'0 0.0
2018-Mar-03 00:58N 36°50' E 030°36'0 0.0
2018-Mar-03 00:28N 36°50' E 030°36'0 0.0
2018-Mar-02 23:55N 36°50' E 030°36'0 0.0
2018-Mar-02 23:28N 36°50' E 030°36'0 0.0
2018-Mar-02 22:58N 36°50' E 030°36'0 0.0
2018-Mar-02 22:25N 36°50' E 030°36'0 0.0
2018-Mar-02 21:58N 36°50' E 030°36'0 0.0
2018-Mar-02 21:25N 36°50' E 030°36'0 0.0
2018-Mar-02 20:58N 36°50' E 030°36'0 0.0
2018-Mar-02 20:28N 36°50' E 030°36'0 0.0
2018-Mar-02 19:58N 36°50' E 030°36'0 0.0
2018-Mar-02 19:28N 36°50' E 030°36'0 0.0
2018-Mar-02 18:58N 36°50' E 030°36'0 0.0
2018-Mar-02 18:28N 36°50' E 030°36'0 0.0
2018-Mar-02 17:58N 36°50' E 030°36'0 0.0
2018-Mar-02 17:28N 36°50' E 030°36'0 0.0
2018-Mar-02 16:58N 36°50' E 030°36'0 0.0
2018-Mar-02 16:28N 36°50' E 030°36'0 0.0
2018-Mar-02 15:58N 36°50' E 030°36'0 0.0
2018-Mar-02 15:28N 36°50' E 030°36'0 0.0
2018-Mar-02 14:58N 36°50' E 030°36'0 0.0
2018-Mar-02 14:28N 36°50' E 030°36'0 0.0
2018-Mar-02 13:58N 36°50' E 030°36'0 0.0
2018-Mar-02 13:28N 36°50' E 030°36'0 0.0
2018-Mar-02 12:58N 36°50' E 030°36'0 0.0
2018-Mar-02 12:28N 36°50' E 030°36'0 0.0
2018-Mar-02 11:58N 36°50' E 030°36'0 0.0
2018-Mar-02 11:28N 36°50' E 030°36'0 0.0
2018-Mar-02 10:58N 36°50' E 030°36'0 0.0
2018-Mar-02 10:28N 36°50' E 030°36'0 0.0
2018-Mar-02 09:55N 36°50' E 030°36'0 0.0
2018-Mar-02 09:28N 36°50' E 030°36'0 0.0
2018-Mar-02 08:52N 36°50' E 030°36'0 0.0
2018-Mar-02 08:28N 36°50' E 030°36'0 0.0
2018-Mar-02 07:58N 36°50' E 030°36'0 0.0
2018-Mar-02 07:28N 36°50' E 030°36'0 0.0
2018-Mar-02 06:58N 36°50' E 030°36'0 0.0
2018-Mar-02 06:28N 36°50' E 030°36'0 0.0
2018-Mar-02 05:58N 36°50' E 030°36'0 0.0
2018-Mar-02 05:28N 36°50' E 030°36'0 0.0
2018-Mar-02 04:58N 36°50' E 030°36'0 0.0
2018-Mar-02 04:28N 36°50' E 030°36'0 0.0
2018-Mar-02 03:58N 36°50' E 030°36'0 0.0
2018-Mar-02 03:28N 36°50' E 030°36'0 0.0
2018-Mar-02 02:58N 36°50' E 030°36'0 0.0
2018-Mar-02 02:28N 36°50' E 030°36'0 0.0
2018-Mar-02 01:58N 36°50' E 030°36'0 0.0
2018-Mar-02 01:28N 36°50' E 030°36'0 0.0
2018-Mar-02 00:52N 36°50' E 030°36'0 0.0
2018-Mar-02 00:28N 36°50' E 030°36'0 0.0
2018-Mar-01 23:58N 36°50' E 030°36'0 0.0
2018-Mar-01 23:28N 36°50' E 030°36'0 0.0
2018-Mar-01 22:58N 36°50' E 030°36'0 0.0
2018-Mar-01 22:28N 36°50' E 030°36'0 0.0
2018-Mar-01 21:58N 36°50' E 030°36'0 0.0
2018-Mar-01 21:28N 36°50' E 030°36'0 0.0
2018-Mar-01 20:58N 36°50' E 030°36'0 0.0
2018-Mar-01 20:25N 36°50' E 030°36'0 0.0
2018-Mar-01 19:55N 36°50' E 030°36'0 0.0
2018-Mar-01 19:28N 36°50' E 030°36'0 0.0
2018-Mar-01 18:52N 36°50' E 030°36'0 0.0
2018-Mar-01 18:28N 36°50' E 030°36'0 0.0
2018-Mar-01 17:58N 36°50' E 030°36'0 0.0
2018-Mar-01 17:28N 36°50' E 030°36'0 0.0
2018-Mar-01 16:58N 36°50' E 030°36'0 0.0
2018-Mar-01 16:28N 36°50' E 030°36'0 0.0
2018-Mar-01 15:58N 36°50' E 030°36'0 0.0
2018-Mar-01 15:28N 36°50' E 030°36'0 0.0
2018-Mar-01 14:58N 36°50' E 030°36'0 0.0
2018-Mar-01 14:28N 36°50' E 030°36'0 0.0
2018-Mar-01 13:58N 36°50' E 030°36'0 0.0
2018-Mar-01 13:28N 36°50' E 030°36'0 0.0
2018-Mar-01 12:58N 36°50' E 030°36'0 0.0
2018-Mar-01 12:28N 36°50' E 030°36'0 0.0
2018-Mar-01 11:58N 36°50' E 030°36'0 0.0
2018-Mar-01 11:28N 36°50' E 030°36'0 0.0
2018-Mar-01 10:58N 36°50' E 030°36'0 0.0
2018-Mar-01 10:28N 36°50' E 030°36'0 0.0
2018-Mar-01 09:58N 36°50' E 030°36'0 0.0
2018-Mar-01 09:25N 36°50' E 030°36'0 0.0
2018-Mar-01 08:58N 36°50' E 030°36'0 0.0
2018-Mar-01 08:25N 36°50' E 030°36'0 0.0
2018-Mar-01 07:58N 36°50' E 030°36'0 0.0
2018-Mar-01 07:28N 36°50' E 030°36'0 0.0
2018-Mar-01 06:58N 36°50' E 030°36'0 0.0
2018-Mar-01 06:28N 36°50' E 030°36'0 0.0
2018-Mar-01 05:58N 36°50' E 030°36'0 0.0
2018-Mar-01 05:28N 36°50' E 030°36'0 0.0
2018-Mar-01 04:58N 36°50' E 030°36'0 0.0
2018-Mar-01 04:28N 36°50' E 030°36'0 0.0
2018-Mar-01 03:58N 36°50' E 030°36'0 0.0
2018-Mar-01 03:28N 36°50' E 030°36'0 0.0
2018-Mar-01 02:58N 36°50' E 030°36'0 0.0
2018-Mar-01 02:28N 36°50' E 030°36'0 0.0
2018-Mar-01 01:58N 36°50' E 030°36'0 0.0
2018-Mar-01 01:28N 36°50' E 030°36'0 0.0
2018-Mar-01 00:58N 36°50' E 030°36'0 0.0
2018-Mar-01 00:28N 36°50' E 030°36'0 0.0
2018-Feb-28 23:58N 36°50' E 030°36'0 0.0
2018-Feb-28 23:28N 36°50' E 030°36'0 0.0
2018-Feb-28 22:58N 36°50' E 030°36'0 0.0
2018-Feb-28 22:28N 36°50' E 030°36'0 0.0
2018-Feb-28 21:58N 36°50' E 030°36'0 0.0
2018-Feb-28 21:28N 36°50' E 030°36'0 0.0
2018-Feb-28 20:58N 36°50' E 030°36'0 0.0
2018-Feb-28 20:28N 36°50' E 030°36'0 0.0
2018-Feb-28 19:58N 36°50' E 030°36'0 0.0
2018-Feb-28 19:28N 36°50' E 030°36'0 0.0
2018-Feb-28 18:58N 36°50' E 030°36'0 0.0
2018-Feb-28 18:28N 36°50' E 030°36'0 0.0
2018-Feb-28 17:58N 36°50' E 030°36'0 0.0
2018-Feb-28 17:28N 36°50' E 030°36'0 0.0
2018-Feb-28 16:58N 36°50' E 030°36'0 0.0
2018-Feb-28 16:28N 36°50' E 030°36'0 0.0
2018-Feb-28 15:58N 36°50' E 030°36'0 0.0
2018-Feb-28 15:28N 36°50' E 030°36'0 0.0
2018-Feb-28 14:58N 36°50' E 030°36'0 0.0
2018-Feb-28 14:28N 36°50' E 030°36'0 0.0
2018-Feb-28 13:58N 36°50' E 030°36'0 0.0
2018-Feb-28 13:28N 36°50' E 030°36'0 0.0
2018-Feb-28 12:58N 36°50' E 030°36'0 0.0
2018-Feb-28 12:28N 36°50' E 030°36'0 0.0
2018-Feb-28 11:58N 36°50' E 030°36'0 0.0
2018-Feb-28 11:28N 36°50' E 030°36'0 0.0
2018-Feb-28 10:58N 36°50' E 030°36'0 0.0
2018-Feb-28 10:28N 36°50' E 030°36'0 0.0
2018-Feb-28 09:58N 36°50' E 030°36'0 0.0
2018-Feb-28 09:28N 36°50' E 030°36'0 0.0
2018-Feb-28 08:58N 36°50' E 030°36'0 0.0
2018-Feb-28 08:28N 36°50' E 030°36'0 0.0
2018-Feb-28 07:58N 36°50' E 030°36'0 0.0
2018-Feb-28 07:28N 36°50' E 030°36'0 0.0
2018-Feb-28 06:58N 36°50' E 030°36'0 0.0
2018-Feb-28 06:28N 36°50' E 030°36'0 0.0
2018-Feb-28 05:58N 36°50' E 030°36'0 0.0
2018-Feb-28 05:28N 36°50' E 030°36'0 0.0
2018-Feb-28 04:58N 36°50' E 030°36'0 0.0
2018-Feb-28 04:28N 36°50' E 030°36'0 0.0
2018-Feb-28 03:58N 36°50' E 030°36'0 0.0
2018-Feb-28 03:28N 36°50' E 030°36'0 0.0
2018-Feb-28 02:58N 36°50' E 030°36'0 0.0
2018-Feb-28 02:28N 36°50' E 030°36'0 0.0
2018-Feb-28 01:58N 36°50' E 030°36'0 0.0
2018-Feb-28 01:28N 36°50' E 030°36'0 0.0
2018-Feb-28 00:58N 36°50' E 030°36'0 0.0
2018-Feb-28 00:28N 36°50' E 030°36'0 0.0
2018-Feb-27 23:58N 36°50' E 030°36'0 0.0
2018-Feb-27 23:28N 36°50' E 030°36'0 0.0
2018-Feb-27 22:58N 36°50' E 030°36'0 0.0
2018-Feb-27 22:28N 36°50' E 030°36'0 0.0
2018-Feb-27 21:58N 36°50' E 030°36'  
Track history (hours):
 
Tides and Currents Weather Stations Pressure Air Temp Water Temp Dewpoint Dewpoint Depression Visibility Wind Speed Wind Dir Waves Ship Positions

Turkum

Last reported at 2018-Mar-09 21:35 UTC. Time now 2018-Jun-20 21:10 UTC.
Position N 36°18' E 030°32'.
Warning: this ship's position is months out of date.

Length 14 m.

Type: Pleasure craft. MMSI: 271043685.

Date/timePositionNaut miles runAvg speedWind from/ knotsBaromVisibWave heightAir tempDewpointWater temp
2018-Mar-09 21:35N 36°18' E 030°32'1 5.8
2018-Mar-09 21:28N 36°19' E 030°32'4 6.3
2018-Mar-09 20:52N 36°22' E 030°34'7 6.4
2018-Mar-09 19:45N 36°29' E 030°37'2 6.3
2018-Mar-09 19:24N 36°31' E 030°37'2 6.1
2018-Mar-09 19:00N 36°34' E 030°37'2 3.0
2018-Mar-09 18:30N 36°35' E 030°37'3 6.2
2018-Mar-09 18:00N 36°38' E 030°38'3 6.1
2018-Mar-09 17:29N 36°41' E 030°38'3 5.9
2018-Mar-09 17:00N 36°44' E 030°38'3 5.9
2018-Mar-09 16:30N 36°47' E 030°38'3 5.3
2018-Mar-09 16:00N 36°50' E 030°37'1 1.4
2018-Mar-09 15:29N 36°50' E 030°36'0 0.0
2018-Mar-09 14:59N 36°50' E 030°36'0 0.0
2018-Mar-09 14:29N 36°50' E 030°36'0 0.0
2018-Mar-09 13:59N 36°50' E 030°36'0 0.0
2018-Mar-09 13:29N 36°50' E 030°36'0 0.0
2018-Mar-09 12:59N 36°50' E 030°36'0 0.0
2018-Mar-09 12:29N 36°50' E 030°36'0 0.0
2018-Mar-09 11:59N 36°50' E 030°36'0 0.0
2018-Mar-09 11:29N 36°50' E 030°36'0 0.0
2018-Mar-09 10:59N 36°50' E 030°36'0 0.0
2018-Mar-09 10:29N 36°50' E 030°36'0 0.0
2018-Mar-09 09:50N 36°50' E 030°36'0 0.0
2018-Mar-09 09:29N 36°50' E 030°36'0 0.0
2018-Mar-09 08:59N 36°50' E 030°36'0 0.0
2018-Mar-09 08:29N 36°50' E 030°36'0 0.0
2018-Mar-09 07:59N 36°50' E 030°36'0 0.0
2018-Mar-09 07:29N 36°50' E 030°36'0 0.0
2018-Mar-09 06:59N 36°50' E 030°36'0 0.0
2018-Mar-09 06:29N 36°50' E 030°36'0 0.0
2018-Mar-09 05:59N 36°50' E 030°36'0 0.0
2018-Mar-09 05:29N 36°50' E 030°36'0 0.0
2018-Mar-09 04:59N 36°50' E 030°36'0 0.0
2018-Mar-09 04:29N 36°50' E 030°36'0 0.0
2018-Mar-09 03:56N 36°50' E 030°36'0 0.0
2018-Mar-09 03:30N 36°50' E 030°36'0 0.0
2018-Mar-09 02:59N 36°50' E 030°36'0 0.0
2018-Mar-09 02:29N 36°50' E 030°36'0 0.0
2018-Mar-09 02:00N 36°50' E 030°36'0 0.0
2018-Mar-09 01:29N 36°50' E 030°36'0 0.0
2018-Mar-09 01:00N 36°50' E 030°36'0 0.0
2018-Mar-09 00:30N 36°50' E 030°36'0 0.0
2018-Mar-09 00:00N 36°50' E 030°36'0 0.0
2018-Mar-08 23:30N 36°50' E 030°36'0 0.0
2018-Mar-08 23:00N 36°50' E 030°36'0 0.0
2018-Mar-08 22:30N 36°50' E 030°36'0 0.0
2018-Mar-08 22:00N 36°50' E 030°36'0 0.0
2018-Mar-08 21:30N 36°50' E 030°36'0 0.0
2018-Mar-08 21:00N 36°50' E 030°36'0 0.0
2018-Mar-08 20:24N 36°50' E 030°36'0 0.0
2018-Mar-07 22:00N 36°50' E 030°36'0 0.0
2018-Mar-07 21:30N 36°50' E 030°36'0 0.0
2018-Mar-07 21:00N 36°50' E 030°36'0 0.0
2018-Mar-07 20:30N 36°50' E 030°36'0 0.0
2018-Mar-07 20:00N 36°50' E 030°36'0 0.0
2018-Mar-07 19:27N 36°50' E 030°36'0 0.0
2018-Mar-07 19:00N 36°50' E 030°36'0 0.0
2018-Mar-07 18:30N 36°50' E 030°36'0 0.0
2018-Mar-07 18:00N 36°50' E 030°36'0 0.0
2018-Mar-07 17:30N 36°50' E 030°36'0 0.0
2018-Mar-07 17:00N 36°50' E 030°36'0 0.0
2018-Mar-07 16:30N 36°50' E 030°36'0 0.0
2018-Mar-07 16:00N 36°50' E 030°36'0 0.0
2018-Mar-07 15:30N 36°50' E 030°36'0 0.0
2018-Mar-07 15:00N 36°50' E 030°36'0 0.0
2018-Mar-07 14:30N 36°50' E 030°36'0 0.0
2018-Mar-07 14:00N 36°50' E 030°36'0 0.0
2018-Mar-07 13:30N 36°50' E 030°36'0 0.0
2018-Mar-07 13:00N 36°50' E 030°36'0 0.0
2018-Mar-07 12:30N 36°50' E 030°36'0 0.0
2018-Mar-07 12:00N 36°50' E 030°36'0 0.0
2018-Mar-07 11:30N 36°50' E 030°36'0 0.0
2018-Mar-07 11:00N 36°50' E 030°36'0 0.0
2018-Mar-07 10:30N 36°50' E 030°36'0 0.0
2018-Mar-07 10:00N 36°50' E 030°36'0 0.0
2018-Mar-07 09:30N 36°50' E 030°36'0 0.0
2018-Mar-07 09:00N 36°50' E 030°36'0 0.0
2018-Mar-07 08:27N 36°50' E 030°36'0 0.0
2018-Mar-07 08:00N 36°50' E 030°36'0 0.0
2018-Mar-07 07:30N 36°50' E 030°36'0 0.0
2018-Mar-07 07:00N 36°50' E 030°36'0 0.0
2018-Mar-07 06:30N 36°50' E 030°36'0 0.0
2018-Mar-07 06:00N 36°50' E 030°36'0 0.0
2018-Mar-07 05:30N 36°50' E 030°36'0 0.0
2018-Mar-07 05:00N 36°50' E 030°36'0 0.0
2018-Mar-07 04:30N 36°50' E 030°36'0 0.0
2018-Mar-07 04:00N 36°50' E 030°36'0 0.0
2018-Mar-07 03:30N 36°50' E 030°36'0 0.0
2018-Mar-07 03:00N 36°50' E 030°36'0 0.0
2018-Mar-07 02:30N 36°50' E 030°36'0 0.0
2018-Mar-07 02:00N 36°50' E 030°36'0 0.0
2018-Mar-07 01:30N 36°50' E 030°36'0 0.0
2018-Mar-07 00:57N 36°50' E 030°36'0 0.0
2018-Mar-07 00:30N 36°50' E 030°36'0 0.0
2018-Mar-07 00:00N 36°50' E 030°36'0 0.0
2018-Mar-06 23:27N 36°50' E 030°36'0 0.0
2018-Mar-06 23:00N 36°50' E 030°36'0 0.0
2018-Mar-06 22:30N 36°50' E 030°36'0 0.0
2018-Mar-06 22:00N 36°50' E 030°36'0 0.0
2018-Mar-06 21:30N 36°50' E 030°36'0 0.0
2018-Mar-06 21:00N 36°50' E 030°36'0 0.0
2018-Mar-06 20:30N 36°50' E 030°36'0 0.0
2018-Mar-06 20:00N 36°50' E 030°36'0 0.0
2018-Mar-06 19:30N 36°50' E 030°36'0 0.0
2018-Mar-06 19:00N 36°50' E 030°36'0 0.0
2018-Mar-06 18:30N 36°50' E 030°36'0 0.0
2018-Mar-06 18:00N 36°50' E 030°36'0 0.0
2018-Mar-06 17:30N 36°50' E 030°36'0 0.0
2018-Mar-06 17:00N 36°50' E 030°36'0 0.0
2018-Mar-06 16:30N 36°50' E 030°36'0 0.0
2018-Mar-06 16:00N 36°50' E 030°36'0 0.0
2018-Mar-06 15:30N 36°50' E 030°36'0 0.0
2018-Mar-06 15:00N 36°50' E 030°36'0 0.0
2018-Mar-06 14:30N 36°50' E 030°36'0 0.0
2018-Mar-06 14:00N 36°50' E 030°36'0 0.0
2018-Mar-06 13:30N 36°50' E 030°36'0 0.0
2018-Mar-06 13:00N 36°50' E 030°36'0 0.0
2018-Mar-06 12:30N 36°50' E 030°36'0 0.0
2018-Mar-06 12:00N 36°50' E 030°36'0 0.0
2018-Mar-06 11:30N 36°50' E 030°36'0 0.0
2018-Mar-06 11:00N 36°50' E 030°36'0 0.0
2018-Mar-06 10:30N 36°50' E 030°36'0 0.0
2018-Mar-06 10:00N 36°50' E 030°36'0 0.0
2018-Mar-06 09:30N 36°50' E 030°36'0 0.0
2018-Mar-06 09:00N 36°50' E 030°36'0 0.0
2018-Mar-06 08:30N 36°50' E 030°36'0 0.0
2018-Mar-06 07:57N 36°50' E 030°36'0 0.0
2018-Mar-06 07:30N 36°50' E 030°36'0 0.0
2018-Mar-06 07:00N 36°50' E 030°36'0 0.0
2018-Mar-06 06:30N 36°50' E 030°36'0 0.0
2018-Mar-06 05:57N 36°50' E 030°36'0 0.0
2018-Mar-06 05:30N 36°50' E 030°36'0 0.0
2018-Mar-06 05:00N 36°50' E 030°36'0 0.0
2018-Mar-06 04:30N 36°50' E 030°36'0 0.0
2018-Mar-06 04:00N 36°50' E 030°36'0 0.0
2018-Mar-06 03:30N 36°50' E 030°36'0 0.0
2018-Mar-06 03:00N 36°50' E 030°36'0 0.0
2018-Mar-06 02:30N 36°50' E 030°36'0 0.0
2018-Mar-06 02:00N 36°50' E 030°36'0 0.0
2018-Mar-06 01:30N 36°50' E 030°36'0 0.0
2018-Mar-06 01:00N 36°50' E 030°36'0 0.0
2018-Mar-06 00:30N 36°50' E 030°36'0 0.0
2018-Mar-06 00:00N 36°50' E 030°36'0 0.0
2018-Mar-05 23:30N 36°50' E 030°36'0 0.0
2018-Mar-05 23:00N 36°50' E 030°36'0 0.0
2018-Mar-05 22:30N 36°50' E 030°36'0 0.0
2018-Mar-05 22:00N 36°50' E 030°36'0 0.0
2018-Mar-05 21:30N 36°50' E 030°36'0 0.0
2018-Mar-05 20:57N 36°50' E 030°36'0 0.0
2018-Mar-05 20:30N 36°50' E 030°36'0 0.0
2018-Mar-05 20:00N 36°50' E 030°36'0 0.0
2018-Mar-05 19:30N 36°50' E 030°36'0 0.0
2018-Mar-05 19:00N 36°50' E 030°36'0 0.0
2018-Mar-05 18:30N 36°50' E 030°36'0 0.0
2018-Mar-05 18:00N 36°50' E 030°36'0 0.0
2018-Mar-05 17:30N 36°50' E 030°36'0 0.0
2018-Mar-05 17:00N 36°50' E 030°36'0 0.0
2018-Mar-05 16:30N 36°50' E 030°36'0 0.0
2018-Mar-05 05:15N 36°50' E 030°36'0 0.0
2018-Mar-05 05:00N 36°50' E 030°36'0 0.0
2018-Mar-05 04:30N 36°50' E 030°36'0 0.0
2018-Mar-05 04:00N 36°50' E 030°36'0 0.0
2018-Mar-05 03:30N 36°50' E 030°36'0 0.0
2018-Mar-05 03:00N 36°50' E 030°36'0 0.0
2018-Mar-05 02:30N 36°50' E 030°36'0 0.0
2018-Mar-05 02:00N 36°50' E 030°36'0 0.0
2018-Mar-05 01:30N 36°50' E 030°36'0 0.0
2018-Mar-05 01:00N 36°50' E 030°36'0 0.0
2018-Mar-05 00:30N 36°50' E 030°36'0 0.0
2018-Mar-05 00:00N 36°50' E 030°36'0 0.0
2018-Mar-04 23:30N 36°50' E 030°36'0 0.0
2018-Mar-04 23:00N 36°50' E 030°36'0 0.0
2018-Mar-04 22:30N 36°50' E 030°36'0 0.0
2018-Mar-04 22:00N 36°50' E 030°36'0 0.0
2018-Mar-04 21:30N 36°50' E 030°36'0 0.0
2018-Mar-04 21:00N 36°50' E 030°36'0 0.0
2018-Mar-04 20:30N 36°50' E 030°36'0 0.0
2018-Mar-04 20:00N 36°50' E 030°36'0 0.0
2018-Mar-04 19:30N 36°50' E 030°36'0 0.0
2018-Mar-04 19:00N 36°50' E 030°36'0 0.0
2018-Mar-04 18:30N 36°50' E 030°36'0 0.0
2018-Mar-04 18:00N 36°50' E 030°36'0 0.0
2018-Mar-04 17:30N 36°50' E 030°36'0 0.0
2018-Mar-04 16:57N 36°50' E 030°36'0 0.0
2018-Mar-04 16:30N 36°50' E 030°36'0 0.0
2018-Mar-04 15:57N 36°50' E 030°36'0 0.0
2018-Mar-04 15:30N 36°50' E 030°36'0 0.0
2018-Mar-04 15:00N 36°50' E 030°36'0 0.0
2018-Mar-04 14:30N 36°50' E 030°36'0 0.0
2018-Mar-04 14:00N 36°50' E 030°36'0 0.0
2018-Mar-04 13:30N 36°50' E 030°36'0 0.0
2018-Mar-04 13:00N 36°50' E 030°36'0 0.0
2018-Mar-04 12:30N 36°50' E 030°36'0 0.0
2018-Mar-04 12:00N 36°50' E 030°36'0 0.0
2018-Mar-04 11:30N 36°50' E 030°36'0 0.0
2018-Mar-04 11:00N 36°50' E 030°36'0 0.0
2018-Mar-04 10:30N 36°50' E 030°36'0 0.0
2018-Mar-04 10:00N 36°50' E 030°36'0 0.0
2018-Mar-04 09:30N 36°50' E 030°36'0 0.0
2018-Mar-04 08:54N 36°50' E 030°36'0 0.0
2018-Mar-04 08:30N 36°50' E 030°36'0 0.0
2018-Mar-04 08:00N 36°50' E 030°36'0 0.0
2018-Mar-04 07:30N 36°50' E 030°36'0 0.0
2018-Mar-04 07:00N 36°50' E 030°36'0 0.0
2018-Mar-04 06:30N 36°50' E 030°36'0 0.0
2018-Mar-04 06:00N 36°50' E 030°36'0 0.0
2018-Mar-04 05:30N 36°50' E 030°36'0 0.0
2018-Mar-04 05:00N 36°50' E 030°36'0 0.0
2018-Mar-04 04:30N 36°50' E 030°36'0 0.0
2018-Mar-04 03:57N 36°50' E 030°36'0 0.0
2018-Mar-04 03:30N 36°50' E 030°36'0 0.0
2018-Mar-04 03:00N 36°50' E 030°36'0 0.0
2018-Mar-04 02:30N 36°50' E 030°36'0 0.0
2018-Mar-04 02:00N 36°50' E 030°36'0 0.0
2018-Mar-04 01:30N 36°50' E 030°36'0 0.0
2018-Mar-04 01:00N 36°50' E 030°36'0 0.0
2018-Mar-04 00:30N 36°50' E 030°36'0 0.0
2018-Mar-03 23:57N 36°50' E 030°36'0 0.0
2018-Mar-03 23:30N 36°50' E 030°36'0 0.0
2018-Mar-03 23:00N 36°50' E 030°36'0 0.0
2018-Mar-03 22:30N 36°50' E 030°36'0 0.0
2018-Mar-03 22:00N 36°50' E 030°36'0 0.0
2018-Mar-03 21:30N 36°50' E 030°36'0 0.0
2018-Mar-03 20:57N 36°50' E 030°36'0 0.0
2018-Mar-03 20:27N 36°50' E 030°36'0 0.0
2018-Mar-03 20:01N 36°50' E 030°36'0 0.0
2018-Mar-03 19:31N 36°50' E 030°36'0 0.0
2018-Mar-03 19:00N 36°50' E 030°36'0 0.0
2018-Mar-03 18:31N 36°50' E 030°36'0 0.0
2018-Mar-03 18:01N 36°50' E 030°36'0 0.0
2018-Mar-03 17:25N 36°50' E 030°36'0 0.0
2018-Mar-03 16:58N 36°50' E 030°36'0 0.0
2018-Mar-03 16:28N 36°50' E 030°36'0 0.0
2018-Mar-03 15:58N 36°50' E 030°36'0 0.0
2018-Mar-03 15:28N 36°50' E 030°36'0 0.0
2018-Mar-03 14:58N 36°50' E 030°36'0 0.0
2018-Mar-03 14:28N 36°50' E 030°36'0 0.0
2018-Mar-03 13:58N 36°50' E 030°36'0 0.0
2018-Mar-03 13:28N 36°50' E 030°36'0 0.0
2018-Mar-03 12:58N 36°50' E 030°36'0 0.0
2018-Mar-03 12:28N 36°50' E 030°36'0 0.0
2018-Mar-03 11:52N 36°50' E 030°36'0 0.0
2018-Mar-03 11:28N 36°50' E 030°36'0 0.0
2018-Mar-03 10:58N 36°50' E 030°36'0 0.0
2018-Mar-03 10:22N 36°50' E 030°36'0 0.0
2018-Mar-03 09:55N 36°50' E 030°36'0 0.0
2018-Mar-03 09:22N 36°50' E 030°36'0 0.0
2018-Mar-03 08:58N 36°50' E 030°36'0 0.0
2018-Mar-03 08:28N 36°50' E 030°36'0 0.0
2018-Mar-03 07:58N 36°50' E 030°36'0 0.0
2018-Mar-03 07:28N 36°50' E 030°36'0 0.0
2018-Mar-03 06:58N 36°50' E 030°36'0 0.0
2018-Mar-03 06:28N 36°50' E 030°36'0 0.0
2018-Mar-03 05:58N 36°50' E 030°36'0 0.0
2018-Mar-03 05:28N 36°50' E 030°36'0 0.0
2018-Mar-03 04:58N 36°50' E 030°36'0 0.0
2018-Mar-03 04:28N 36°50' E 030°36'0 0.0
2018-Mar-03 03:55N 36°50' E 030°36'0 0.0
2018-Mar-03 03:28N 36°50' E 030°36'0 0.0
2018-Mar-03 02:58N 36°50' E 030°36'0 0.0
2018-Mar-03 02:28N 36°50' E 030°36'0 0.0
2018-Mar-03 01:58N 36°50' E 030°36'0 0.0
2018-Mar-03 01:28N 36°50' E 030°36'0 0.0
2018-Mar-03 00:58N 36°50' E 030°36'0 0.0
2018-Mar-03 00:28N 36°50' E 030°36'0 0.0
2018-Mar-02 23:55N 36°50' E 030°36'0 0.0
2018-Mar-02 23:28N 36°50' E 030°36'0 0.0
2018-Mar-02 22:58N 36°50' E 030°36'0 0.0
2018-Mar-02 22:25N 36°50' E 030°36'0 0.0
2018-Mar-02 21:58N 36°50' E 030°36'0 0.0
2018-Mar-02 21:25N 36°50' E 030°36'0 0.0
2018-Mar-02 20:58N 36°50' E 030°36'0 0.0
2018-Mar-02 20:28N 36°50' E 030°36'0 0.0
2018-Mar-02 19:58N 36°50' E 030°36'0 0.0
2018-Mar-02 19:28N 36°50' E 030°36'0 0.0
2018-Mar-02 18:58N 36°50' E 030°36'0 0.0
2018-Mar-02 18:28N 36°50' E 030°36'0 0.0
2018-Mar-02 17:58N 36°50' E 030°36'0 0.0
2018-Mar-02 17:28N 36°50' E 030°36'0 0.0
2018-Mar-02 16:58N 36°50' E 030°36'0 0.0
2018-Mar-02 16:28N 36°50' E 030°36'0 0.0
2018-Mar-02 15:58N 36°50' E 030°36'0 0.0
2018-Mar-02 15:28N 36°50' E 030°36'0 0.0
2018-Mar-02 14:58N 36°50' E 030°36'0 0.0
2018-Mar-02 14:28N 36°50' E 030°36'0 0.0
2018-Mar-02 13:58N 36°50' E 030°36'0 0.0
2018-Mar-02 13:28N 36°50' E 030°36'0 0.0
2018-Mar-02 12:58N 36°50' E 030°36'0 0.0
2018-Mar-02 12:28N 36°50' E 030°36'0 0.0
2018-Mar-02 11:58N 36°50' E 030°36'0 0.0
2018-Mar-02 11:28N 36°50' E 030°36'0 0.0
2018-Mar-02 10:58N 36°50' E 030°36'0 0.0
2018-Mar-02 10:28N 36°50' E 030°36'0 0.0
2018-Mar-02 09:55N 36°50' E 030°36'0 0.0
2018-Mar-02 09:28N 36°50' E 030°36'0 0.0
2018-Mar-02 08:52N 36°50' E 030°36'0 0.0
2018-Mar-02 08:28N 36°50' E 030°36'0 0.0
2018-Mar-02 07:58N 36°50' E 030°36'0 0.0
2018-Mar-02 07:28N 36°50' E 030°36'0 0.0
2018-Mar-02 06:58N 36°50' E 030°36'0 0.0
2018-Mar-02 06:28N 36°50' E 030°36'0 0.0
2018-Mar-02 05:58N 36°50' E 030°36'0 0.0
2018-Mar-02 05:28N 36°50' E 030°36'0 0.0
2018-Mar-02 04:58N 36°50' E 030°36'0 0.0
2018-Mar-02 04:28N 36°50' E 030°36'0 0.0
2018-Mar-02 03:58N 36°50' E 030°36'0 0.0
2018-Mar-02 03:28N 36°50' E 030°36'0 0.0
2018-Mar-02 02:58N 36°50' E 030°36'0 0.0
2018-Mar-02 02:28N 36°50' E 030°36'0 0.0
2018-Mar-02 01:58N 36°50' E 030°36'0 0.0
2018-Mar-02 01:28N 36°50' E 030°36'0 0.0
2018-Mar-02 00:52N 36°50' E 030°36'0 0.0
2018-Mar-02 00:28N 36°50' E 030°36'0 0.0
2018-Mar-01 23:58N 36°50' E 030°36'0 0.0
2018-Mar-01 23:28N 36°50' E 030°36'0 0.0
2018-Mar-01 22:58N 36°50' E 030°36'0 0.0
2018-Mar-01 22:28N 36°50' E 030°36'0 0.0
2018-Mar-01 21:58N 36°50' E 030°36'0 0.0
2018-Mar-01 21:28N 36°50' E 030°36'0 0.0
2018-Mar-01 20:58N 36°50' E 030°36'0 0.0
2018-Mar-01 20:25N 36°50' E 030°36'0 0.0
2018-Mar-01 19:55N 36°50' E 030°36'0 0.0
2018-Mar-01 19:28N 36°50' E 030°36'0 0.0
2018-Mar-01 18:52N 36°50' E 030°36'0 0.0
2018-Mar-01 18:28N 36°50' E 030°36'0 0.0
2018-Mar-01 17:58N 36°50' E 030°36'0 0.0
2018-Mar-01 17:28N 36°50' E 030°36'0 0.0
2018-Mar-01 16:58N 36°50' E 030°36'0 0.0
2018-Mar-01 16:28N 36°50' E 030°36'0 0.0
2018-Mar-01 15:58N 36°50' E 030°36'0 0.0
2018-Mar-01 15:28N 36°50' E 030°36'0 0.0
2018-Mar-01 14:58N 36°50' E 030°36'0 0.0
2018-Mar-01 14:28N 36°50' E 030°36'0 0.0
2018-Mar-01 13:58N 36°50' E 030°36'0 0.0
2018-Mar-01 13:28N 36°50' E 030°36'0 0.0
2018-Mar-01 12:58N 36°50' E 030°36'0 0.0
2018-Mar-01 12:28N 36°50' E 030°36'0 0.0
2018-Mar-01 11:58N 36°50' E 030°36'0 0.0
2018-Mar-01 11:28N 36°50' E 030°36'0 0.0
2018-Mar-01 10:58N 36°50' E 030°36'0 0.0
2018-Mar-01 10:28N 36°50' E 030°36'0 0.0
2018-Mar-01 09:58N 36°50' E 030°36'0 0.0
2018-Mar-01 09:25N 36°50' E 030°36'0 0.0
2018-Mar-01 08:58N 36°50' E 030°36'0 0.0
2018-Mar-01 08:25N 36°50' E 030°36'0 0.0
2018-Mar-01 07:58N 36°50' E 030°36'0 0.0
2018-Mar-01 07:28N 36°50' E 030°36'0 0.0
2018-Mar-01 06:58N 36°50' E 030°36'0 0.0
2018-Mar-01 06:28N 36°50' E 030°36'0 0.0
2018-Mar-01 05:58N 36°50' E 030°36'0 0.0
2018-Mar-01 05:28N 36°50' E 030°36'0 0.0
2018-Mar-01 04:58N 36°50' E 030°36'0 0.0
2018-Mar-01 04:28N 36°50' E 030°36'0 0.0
2018-Mar-01 03:58N 36°50' E 030°36'0 0.0
2018-Mar-01 03:28N 36°50' E 030°36'0 0.0
2018-Mar-01 02:58N 36°50' E 030°36'0 0.0
2018-Mar-01 02:28N 36°50' E 030°36'0 0.0
2018-Mar-01 01:58N 36°50' E 030°36'0 0.0
2018-Mar-01 01:28N 36°50' E 030°36'0 0.0
2018-Mar-01 00:58N 36°50' E 030°36'0 0.0
2018-Mar-01 00:28N 36°50' E 030°36'0 0.0
2018-Feb-28 23:58N 36°50' E 030°36'0 0.0
2018-Feb-28 23:28N 36°50' E 030°36'0 0.0
2018-Feb-28 22:58N 36°50' E 030°36'0 0.0
2018-Feb-28 22:28N 36°50' E 030°36'0 0.0
2018-Feb-28 21:58N 36°50' E 030°36'0 0.0
2018-Feb-28 21:28N 36°50' E 030°36'0 0.0
2018-Feb-28 20:58N 36°50' E 030°36'0 0.0
2018-Feb-28 20:28N 36°50' E 030°36'0 0.0
2018-Feb-28 19:58N 36°50' E 030°36'0 0.0
2018-Feb-28 19:28N 36°50' E 030°36'0 0.0
2018-Feb-28 18:58N 36°50' E 030°36'0 0.0
2018-Feb-28 18:28N 36°50' E 030°36'0 0.0
2018-Feb-28 17:58N 36°50' E 030°36'0 0.0
2018-Feb-28 17:28N 36°50' E 030°36'0 0.0
2018-Feb-28 16:58N 36°50' E 030°36'0 0.0
2018-Feb-28 16:28N 36°50' E 030°36'0 0.0
2018-Feb-28 15:58N 36°50' E 030°36'0 0.0
2018-Feb-28 15:28N 36°50' E 030°36'0 0.0
2018-Feb-28 14:58N 36°50' E 030°36'0 0.0
2018-Feb-28 14:28N 36°50' E 030°36'0 0.0
2018-Feb-28 13:58N 36°50' E 030°36'0 0.0
2018-Feb-28 13:28N 36°50' E 030°36'0 0.0
2018-Feb-28 12:58N 36°50' E 030°36'0 0.0
2018-Feb-28 12:28N 36°50' E 030°36'0 0.0
2018-Feb-28 11:58N 36°50' E 030°36'0 0.0
2018-Feb-28 11:28N 36°50' E 030°36'0 0.0
2018-Feb-28 10:58N 36°50' E 030°36'0 0.0
2018-Feb-28 10:28N 36°50' E 030°36'0 0.0
2018-Feb-28 09:58N 36°50' E 030°36'0 0.0
2018-Feb-28 09:28N 36°50' E 030°36'0 0.0
2018-Feb-28 08:58N 36°50' E 030°36'0 0.0
2018-Feb-28 08:28N 36°50' E 030°36'0 0.0
2018-Feb-28 07:58N 36°50' E 030°36'0 0.0
2018-Feb-28 07:28N 36°50' E 030°36'0 0.0
2018-Feb-28 06:58N 36°50' E 030°36'0 0.0
2018-Feb-28 06:28N 36°50' E 030°36'0 0.0
2018-Feb-28 05:58N 36°50' E 030°36'0 0.0
2018-Feb-28 05:28N 36°50' E 030°36'0 0.0
2018-Feb-28 04:58N 36°50' E 030°36'0 0.0
2018-Feb-28 04:28N 36°50' E 030°36'0 0.0
2018-Feb-28 03:58N 36°50' E 030°36'0 0.0
2018-Feb-28 03:28N 36°50' E 030°36'0 0.0
2018-Feb-28 02:58N 36°50' E 030°36'0 0.0
2018-Feb-28 02:28N 36°50' E 030°36'0 0.0
2018-Feb-28 01:58N 36°50' E 030°36'0 0.0
2018-Feb-28 01:28N 36°50' E 030°36'0 0.0
2018-Feb-28 00:58N 36°50' E 030°36'0 0.0
2018-Feb-28 00:28N 36°50' E 030°36'0 0.0
2018-Feb-27 23:58N 36°50' E 030°36'0 0.0
2018-Feb-27 23:28N 36°50' E 030°36'0 0.0
2018-Feb-27 22:58N 36°50' E 030°36'0 0.0
2018-Feb-27 22:28N 36°50' E 030°36'0 0.0
2018-Feb-27 21:58N 36°50' E 030°36'  

Dump ship's entire track history